createdAt,value
2022-09-15T00:00:05.512Z,91.39
2022-09-15T00:01:05.547Z,90.93
2022-09-15T00:02:05.652Z,90.93
2022-09-15T00:03:05.543Z,91.44
2022-09-15T00:04:05.480Z,91.24
2022-09-15T00:05:05.476Z,91.64
2022-09-15T00:06:05.467Z,91.44
2022-09-15T00:07:05.477Z,90.99
2022-09-15T00:08:05.467Z,91.09
2022-09-15T00:09:05.490Z,90.73
2022-09-15T00:10:05.439Z,90.73
2022-09-15T00:11:05.441Z,90.73
2022-09-15T00:12:05.438Z,90.93
2022-09-15T00:13:05.447Z,90.97
2022-09-15T00:14:05.427Z,91.78
2022-09-15T00:15:05.423Z,91.38
2022-09-15T00:16:05.399Z,92.40
2022-09-15T00:17:05.456Z,92.70
2022-09-15T00:18:05.412Z,92.80
2022-09-15T00:19:05.385Z,92.24
2022-09-15T00:20:05.381Z,91.63
2022-09-15T00:21:05.383Z,91.83
2022-09-15T00:22:05.371Z,91.63
2022-09-15T00:23:05.412Z,91.28
2022-09-15T00:24:05.353Z,91.38
2022-09-15T00:25:05.351Z,90.67
2022-09-15T00:26:05.355Z,90.26
2022-09-15T00:27:05.343Z,90.67
2022-09-15T00:28:05.327Z,91.28
2022-09-15T00:29:05.342Z,90.47
2022-09-15T00:30:05.313Z,90.57
2022-09-15T00:31:05.381Z,90.97
2022-09-15T00:32:05.299Z,90.67
2022-09-15T00:33:05.297Z,90.88
2022-09-15T00:34:05.287Z,90.77
2022-09-15T00:35:05.279Z,90.61
2022-09-15T00:36:05.275Z,90.61
2022-09-15T00:37:05.272Z,90.61
2022-09-15T00:38:05.275Z,91.06
2022-09-15T00:39:05.253Z,91.16
2022-09-15T00:40:05.307Z,91.91
2022-09-15T00:41:05.256Z,92.87
2022-09-15T00:42:05.239Z,93.18
2022-09-15T00:43:05.234Z,93.28
2022-09-15T00:44:05.251Z,94.29
2022-09-15T00:45:05.235Z,93.68
2022-09-15T00:46:05.251Z,94.24
2022-09-15T00:47:18.661Z,94.24
2022-09-15T00:48:07.190Z,93.93
2022-09-15T00:49:05.183Z,93.99
2022-09-15T00:50:05.232Z,93.89
2022-09-15T00:51:05.183Z,94.09
2022-09-15T00:52:05.167Z,93.89
2022-09-15T00:53:05.167Z,94.13
2022-09-15T00:54:05.144Z,94.54
2022-09-15T00:55:05.182Z,94.95
2022-09-15T00:56:05.158Z,94.90
2022-09-15T00:57:05.146Z,94.80
2022-09-15T00:58:05.139Z,93.89
2022-09-15T00:59:05.122Z,94.15
2022-09-15T01:00:05.120Z,93.74
2022-09-15T01:01:05.748Z,93.07
2022-09-15T01:02:05.154Z,93.59
2022-09-15T01:03:05.095Z,93.24
2022-09-15T01:04:05.105Z,92.68
2022-09-15T01:05:05.096Z,92.72
2022-09-15T01:06:05.158Z,92.68
2022-09-15T01:07:05.072Z,92.83
2022-09-15T01:08:05.074Z,93.18
2022-09-15T01:09:05.055Z,92.97
2022-09-15T01:10:05.058Z,93.63
2022-09-15T01:11:05.038Z,94.13
2022-09-15T01:12:05.040Z,94.04
2022-09-15T01:13:05.026Z,93.48
2022-09-15T01:14:05.062Z,92.97
2022-09-15T01:15:05.012Z,93.38
2022-09-15T01:16:05.037Z,92.93
2022-09-15T01:17:05.006Z,92.68
2022-09-15T01:18:05.057Z,92.79
2022-09-15T01:19:05.031Z,91.47
2022-09-15T01:20:04.987Z,91.56
2022-09-15T01:21:04.971Z,91.42
2022-09-15T01:22:04.962Z,91.06
2022-09-15T01:23:04.966Z,91.32
2022-09-15T01:24:04.952Z,90.71
2022-09-15T01:25:04.959Z,90.92
2022-09-15T01:26:04.966Z,90.61
2022-09-15T01:27:18.761Z,90.47
2022-09-15T01:28:06.995Z,89.80
2022-09-15T01:29:04.927Z,89.80
2022-09-15T01:30:04.938Z,89.04
2022-09-15T01:31:04.907Z,89.35
2022-09-15T01:32:05.004Z,89.76
2022-09-15T01:33:04.911Z,88.44
2022-09-15T01:34:04.950Z,88.75
2022-09-15T01:35:04.886Z,88.89
2022-09-15T01:36:04.895Z,88.58
2022-09-15T01:37:04.863Z,89.74
2022-09-15T01:38:04.859Z,89.98
2022-09-15T01:39:04.852Z,91.41
2022-09-15T01:40:04.875Z,91.25
2022-09-15T01:41:04.865Z,91.86
2022-09-15T01:42:04.828Z,91.86
2022-09-15T01:43:04.819Z,92.67
2022-09-15T01:44:04.816Z,92.87
2022-09-15T01:45:04.815Z,92.12
2022-09-15T01:46:04.899Z,91.20
2022-09-15T01:47:04.792Z,91.45
2022-09-15T01:48:04.796Z,91.86
2022-09-15T01:49:04.790Z,92.51
2022-09-15T01:50:04.775Z,92.91
2022-09-15T01:51:04.763Z,93.06
2022-09-15T01:52:04.771Z,93.16
2022-09-15T01:53:04.758Z,93.32
2022-09-15T01:54:04.755Z,92.91
2022-09-15T01:55:04.739Z,93.48
2022-09-15T01:56:04.735Z,93.28
2022-09-15T01:57:04.751Z,92.57
2022-09-15T01:58:04.724Z,92.77
2022-09-15T01:59:04.719Z,92.47
2022-09-15T02:00:04.719Z,92.87
2022-09-15T02:01:04.773Z,92.67
2022-09-15T02:02:04.766Z,92.63
2022-09-15T02:03:04.731Z,92.72
2022-09-15T02:04:04.687Z,92.83
2022-09-15T02:05:04.681Z,92.28
2022-09-15T02:06:04.682Z,91.87
2022-09-15T02:07:04.683Z,91.87
2022-09-15T02:08:04.663Z,91.16
2022-09-15T02:09:04.646Z,91.12
2022-09-15T02:10:04.634Z,91.02
2022-09-15T02:11:05.642Z,90.81
2022-09-15T02:12:04.642Z,90.61
2022-09-15T02:13:04.658Z,91.08
2022-09-15T02:14:04.610Z,89.76
2022-09-15T02:15:04.618Z,89.45
2022-09-15T02:16:04.652Z,89.11
2022-09-15T02:17:04.607Z,89.31
2022-09-15T02:18:04.610Z,89.67
2022-09-15T02:19:04.578Z,89.26
2022-09-15T02:20:04.584Z,88.56
2022-09-15T02:21:04.586Z,88.96
2022-09-15T02:22:04.575Z,88.42
2022-09-15T02:23:04.574Z,88.56
2022-09-15T02:24:04.574Z,88.46
2022-09-15T02:25:04.545Z,88.62
2022-09-15T02:26:04.538Z,88.42
2022-09-15T02:27:04.547Z,88.46
2022-09-15T02:28:04.547Z,88.56
2022-09-15T02:29:04.518Z,88.35
2022-09-15T02:30:04.578Z,88.72
2022-09-15T02:31:04.574Z,88.66
2022-09-15T02:32:07.280Z,88.66
2022-09-15T02:33:05.514Z,88.76
2022-09-15T02:34:04.494Z,88.46
2022-09-15T02:35:04.514Z,88.56
2022-09-15T02:36:04.470Z,88.82
2022-09-15T02:37:04.478Z,88.86
2022-09-15T02:38:04.486Z,89.77
2022-09-15T02:39:04.462Z,90.12
2022-09-15T02:40:04.540Z,90.93
2022-09-15T02:41:04.439Z,90.28
2022-09-15T02:42:04.429Z,90.03
2022-09-15T02:43:04.429Z,89.73
2022-09-15T02:44:04.441Z,89.23
2022-09-15T02:45:04.414Z,88.57
2022-09-15T02:46:04.502Z,88.37
2022-09-15T02:47:04.407Z,87.97
2022-09-15T02:48:04.402Z,87.77
2022-09-15T02:49:04.410Z,88.17
2022-09-15T02:50:04.377Z,87.77
2022-09-15T02:51:04.391Z,88.07
2022-09-15T02:52:04.381Z,87.87
2022-09-15T02:53:04.361Z,87.56
2022-09-15T02:54:04.358Z,87.81
2022-09-15T02:55:04.354Z,88.82
2022-09-15T02:56:04.345Z,89.12
2022-09-15T02:57:04.353Z,88.51
2022-09-15T02:58:04.329Z,88.57
2022-09-15T02:59:04.320Z,87.97
2022-09-15T03:00:04.317Z,87.62
2022-09-15T03:01:04.394Z,87.02
2022-09-15T03:02:04.346Z,87.62
2022-09-15T03:03:04.296Z,87.05
2022-09-15T03:04:04.301Z,87.36
2022-09-15T03:05:04.297Z,87.97
2022-09-15T03:06:04.278Z,88.21
2022-09-15T03:07:04.308Z,88.72
2022-09-15T03:08:04.272Z,88.86
2022-09-15T03:09:04.266Z,89.43
2022-09-15T03:10:04.285Z,89.53
2022-09-15T03:11:04.269Z,89.23
2022-09-15T03:12:04.273Z,88.72
2022-09-15T03:13:04.737Z,88.62
2022-09-15T03:14:04.241Z,89.53
2022-09-15T03:15:04.221Z,89.63
2022-09-15T03:16:04.272Z,88.51
2022-09-15T03:17:04.201Z,89.73
2022-09-15T03:18:04.223Z,89.12
2022-09-15T03:19:04.209Z,89.32
2022-09-15T03:20:04.254Z,89.43
2022-09-15T03:22:29.620Z,89.32
2022-09-15T03:23:30.722Z,88.68
2022-09-15T03:24:30.713Z,88.57
2022-09-15T03:25:30.742Z,88.48
2022-09-15T03:26:30.709Z,88.48
2022-09-15T03:27:30.714Z,88.68
2022-09-15T03:28:30.699Z,87.93
2022-09-15T03:29:30.690Z,87.42
2022-09-15T03:30:30.690Z,86.71
2022-09-15T03:31:30.714Z,87.46
2022-09-15T03:32:30.677Z,87.77
2022-09-15T03:33:30.644Z,88.48
2022-09-15T03:34:30.661Z,87.93
2022-09-15T03:35:30.673Z,87.73
2022-09-15T03:36:30.646Z,87.93
2022-09-15T03:37:30.633Z,87.52
2022-09-15T03:38:30.620Z,87.93
2022-09-15T03:39:30.612Z,87.73
2022-09-15T03:40:30.660Z,87.82
2022-09-15T03:41:30.634Z,87.82
2022-09-15T03:42:30.602Z,87.82
2022-09-15T03:43:30.608Z,87.52
2022-09-15T03:44:30.584Z,87.42
2022-09-15T03:45:30.631Z,87.46
2022-09-15T03:46:30.593Z,87.97
2022-09-15T03:47:30.565Z,87.87
2022-09-15T03:48:30.551Z,87.87
2022-09-15T03:49:30.551Z,88.31
2022-09-15T03:50:30.568Z,88.35
2022-09-15T03:51:30.559Z,88.96
2022-09-15T03:52:30.531Z,89.17
2022-09-15T03:53:30.518Z,89.06
2022-09-15T03:54:30.534Z,89.02
2022-09-15T03:55:30.515Z,89.32
2022-09-15T03:56:30.519Z,88.48
2022-09-15T03:57:30.527Z,88.48
2022-09-15T03:58:31.010Z,88.11
2022-09-15T03:59:31.505Z,88.51
2022-09-15T04:00:30.504Z,87.87
2022-09-15T04:01:30.638Z,87.52
2022-09-15T04:02:30.457Z,86.91
2022-09-15T04:03:30.490Z,87.42
2022-09-15T04:04:30.459Z,87.52
2022-09-15T04:05:30.436Z,87.12
2022-09-15T04:06:30.425Z,86.98
2022-09-15T04:07:31.426Z,86.51
2022-09-15T04:08:30.436Z,86.37
2022-09-15T04:09:30.435Z,86.51
2022-09-15T04:10:30.434Z,86.10
2022-09-15T04:11:30.411Z,86.51
2022-09-15T04:12:30.398Z,87.26
2022-09-15T04:13:30.387Z,87.22
2022-09-15T04:14:30.411Z,87.22
2022-09-15T04:15:30.443Z,87.46
2022-09-15T04:16:30.430Z,87.87
2022-09-15T04:17:30.378Z,88.66
2022-09-15T04:18:30.366Z,89.12
2022-09-15T04:19:30.354Z,89.12
2022-09-15T04:20:30.367Z,89.12
2022-09-15T04:21:30.357Z,88.72
2022-09-15T04:22:30.332Z,88.82
2022-09-15T04:23:30.363Z,88.62
2022-09-15T04:24:30.332Z,88.51
2022-09-15T04:25:30.331Z,88.82
2022-09-15T04:26:30.315Z,88.51
2022-09-15T04:27:30.297Z,88.31
2022-09-15T04:28:30.278Z,88.51
2022-09-15T04:29:30.307Z,88.11
2022-09-15T04:30:31.395Z,88.62
2022-09-15T04:31:30.404Z,88.62
2022-09-15T04:32:30.258Z,88.72
2022-09-15T04:33:30.266Z,88.51
2022-09-15T04:34:30.318Z,88.42
2022-09-15T04:35:30.274Z,88.66
2022-09-15T04:36:30.238Z,88.86
2022-09-15T04:37:30.233Z,88.66
2022-09-15T04:38:30.258Z,88.15
2022-09-15T04:39:30.335Z,88.86
2022-09-15T04:40:30.275Z,88.80
2022-09-15T04:41:30.193Z,88.66
2022-09-15T04:42:30.203Z,88.66
2022-09-15T04:43:30.335Z,88.66
2022-09-15T04:44:30.177Z,88.76
2022-09-15T04:45:30.304Z,88.05
2022-09-15T04:46:30.260Z,87.95
2022-09-15T04:47:30.172Z,88.46
2022-09-15T04:48:30.176Z,88.86
2022-09-15T04:49:30.167Z,88.76
2022-09-15T04:50:30.747Z,87.95
2022-09-15T04:51:30.128Z,88.09
2022-09-15T04:52:30.251Z,88.05
2022-09-15T04:53:30.127Z,88.05
2022-09-15T04:54:30.143Z,87.95
2022-09-15T04:55:30.102Z,87.95
2022-09-15T04:56:30.125Z,88.05
2022-09-15T04:57:30.086Z,87.95
2022-09-15T04:58:30.081Z,88.05
2022-09-15T04:59:30.109Z,87.74
2022-09-15T05:00:30.241Z,87.74
2022-09-15T05:01:30.063Z,88.05
2022-09-15T05:02:30.202Z,88.56
2022-09-15T05:03:30.056Z,88.11
2022-09-15T05:04:30.072Z,88.35
2022-09-15T05:05:30.035Z,87.95
2022-09-15T05:06:30.040Z,88.05
2022-09-15T05:07:30.027Z,88.31
2022-09-15T05:08:30.844Z,88.62
2022-09-15T05:09:30.042Z,88.51
2022-09-15T05:10:30.031Z,88.21
2022-09-15T05:11:30.006Z,88.76
2022-09-15T05:12:29.990Z,88.35
2022-09-15T05:13:29.991Z,88.76
2022-09-15T05:14:30.030Z,89.01
2022-09-15T05:15:29.986Z,89.11
2022-09-15T05:16:30.124Z,89.26
2022-09-15T05:17:29.956Z,89.26
2022-09-15T05:18:29.955Z,88.86
2022-09-15T05:19:29.954Z,88.76
2022-09-15T05:20:29.937Z,89.26
2022-09-15T05:21:29.969Z,89.17
2022-09-15T05:22:29.925Z,88.56
2022-09-15T05:23:29.942Z,88.56
2022-09-15T05:24:29.909Z,88.51
2022-09-15T05:25:29.909Z,88.42
2022-09-15T05:26:29.899Z,88.86
2022-09-15T05:27:29.909Z,88.96
2022-09-15T05:28:29.892Z,89.67
2022-09-15T05:29:29.880Z,89.53
2022-09-15T05:30:38.746Z,88.42
2022-09-15T05:31:31.985Z,88.51
2022-09-15T05:32:29.929Z,88.21
2022-09-15T05:33:29.859Z,88.21
2022-09-15T05:34:29.853Z,88.42
2022-09-15T05:35:29.853Z,88.37
2022-09-15T05:36:29.881Z,87.97
2022-09-15T05:37:29.824Z,87.91
2022-09-15T05:38:29.849Z,88.07
2022-09-15T05:39:29.833Z,87.73
2022-09-15T05:40:29.839Z,87.42
2022-09-15T05:41:29.806Z,87.22
2022-09-15T05:42:29.810Z,86.87
2022-09-15T05:43:29.785Z,86.47
2022-09-15T05:44:29.787Z,86.16
2022-09-15T05:45:30.816Z,86.07
2022-09-15T05:46:29.852Z,86.16
2022-09-15T05:47:29.750Z,85.96
2022-09-15T05:48:29.753Z,86.37
2022-09-15T05:49:29.821Z,86.57
2022-09-15T05:50:29.771Z,86.16
2022-09-15T05:51:29.750Z,86.02
2022-09-15T05:52:29.730Z,85.93
2022-09-15T05:53:29.710Z,85.66
2022-09-15T05:54:29.715Z,84.91
2022-09-15T05:55:29.695Z,84.81
2022-09-15T05:56:29.707Z,84.71
2022-09-15T05:57:29.726Z,85.02
2022-09-15T05:58:29.678Z,84.31
2022-09-15T05:59:29.683Z,85.11
2022-09-15T06:00:29.664Z,85.25
2022-09-15T06:01:29.751Z,85.02
2022-09-15T06:02:29.690Z,84.51
2022-09-15T06:03:31.141Z,84.81
2022-09-15T06:04:30.641Z,84.91
2022-09-15T06:05:29.646Z,85.17
2022-09-15T06:06:29.634Z,85.22
2022-09-15T06:07:29.631Z,85.31
2022-09-15T06:08:29.611Z,85.11
2022-09-15T06:09:29.618Z,84.81
2022-09-15T06:10:29.604Z,84.81
2022-09-15T06:11:30.381Z,84.95
2022-09-15T06:12:29.592Z,85.62
2022-09-15T06:13:29.587Z,85.42
2022-09-15T06:14:29.593Z,85.62
2022-09-15T06:15:29.581Z,85.46
2022-09-15T06:16:29.606Z,85.56
2022-09-15T06:17:29.555Z,85.62
2022-09-15T06:18:29.555Z,84.81
2022-09-15T06:19:29.542Z,85.93
2022-09-15T06:20:29.544Z,85.31
2022-09-15T06:21:29.596Z,85.52
2022-09-15T06:22:29.519Z,84.91
2022-09-15T06:23:29.510Z,85.42
2022-09-15T06:24:29.524Z,85.62
2022-09-15T06:25:29.510Z,85.31
2022-09-15T06:26:29.515Z,85.11
2022-09-15T06:27:29.491Z,85.22
2022-09-15T06:28:29.470Z,84.91
2022-09-15T06:29:29.481Z,84.67
2022-09-15T06:30:29.473Z,84.12
2022-09-15T06:31:29.498Z,83.72
2022-09-15T06:32:29.468Z,83.72
2022-09-15T06:33:29.551Z,82.78
2022-09-15T06:34:29.458Z,82.71
2022-09-15T06:35:29.441Z,83.01
2022-09-15T06:36:29.450Z,83.07
2022-09-15T06:37:29.482Z,82.84
2022-09-15T06:38:29.422Z,82.13
2022-09-15T06:39:29.413Z,82.03
2022-09-15T06:40:29.470Z,81.42
2022-09-15T06:41:38.159Z,80.62
2022-09-15T06:42:31.415Z,81.36
2022-09-15T06:43:29.407Z,80.01
2022-09-15T06:44:29.406Z,80.11
2022-09-15T06:45:29.367Z,80.27
2022-09-15T06:46:29.457Z,81.12
2022-09-15T06:47:29.362Z,80.98
2022-09-15T06:48:29.370Z,79.57
2022-09-15T06:49:29.351Z,79.43
2022-09-15T06:50:29.363Z,79.03
2022-09-15T06:51:29.338Z,78.49
2022-09-15T06:52:29.359Z,78.28
2022-09-15T06:53:29.342Z,77.98
2022-09-15T06:54:29.321Z,77.44
2022-09-15T06:55:30.326Z,76.84
2022-09-15T06:56:29.330Z,77.04
2022-09-15T06:57:29.305Z,77.14
2022-09-15T06:58:29.310Z,76.84
2022-09-15T06:59:29.287Z,76.94
2022-09-15T07:00:29.313Z,77.55
2022-09-15T07:01:29.274Z,77.34
2022-09-15T07:02:29.395Z,77.28
2022-09-15T07:03:29.460Z,77.28
2022-09-15T07:04:29.249Z,77.28
2022-09-15T07:05:29.270Z,77.82
2022-09-15T07:06:29.243Z,78.92
2022-09-15T07:07:29.250Z,79.87
2022-09-15T07:08:29.234Z,79.61
2022-09-15T07:09:29.222Z,80.05
2022-09-15T07:10:29.240Z,80.72
2022-09-15T07:11:29.217Z,81.26
2022-09-15T07:12:29.252Z,81.67
2022-09-15T07:13:29.197Z,80.92
2022-09-15T07:14:29.194Z,80.72
2022-09-15T07:15:29.234Z,80.68
2022-09-15T07:16:29.262Z,79.73
2022-09-15T07:17:29.173Z,79.09
2022-09-15T07:18:29.230Z,77.98
2022-09-15T07:19:29.157Z,77.17
2022-09-15T07:20:29.214Z,76.67
2022-09-15T07:21:29.163Z,76.23
2022-09-15T07:22:29.151Z,75.13
2022-09-15T07:23:29.180Z,74.73
2022-09-15T07:24:29.135Z,75.43
2022-09-15T07:25:29.139Z,75.46
2022-09-15T07:26:29.126Z,76.17
2022-09-15T07:27:29.123Z,76.47
2022-09-15T07:28:29.117Z,76.67
2022-09-15T07:29:29.108Z,76.71
2022-09-15T07:30:29.128Z,77.42
2022-09-15T07:31:29.145Z,77.82
2022-09-15T07:32:29.095Z,77.58
2022-09-15T07:33:29.087Z,77.08
2022-09-15T07:34:29.092Z,77.38
2022-09-15T07:35:29.055Z,78.72
2022-09-15T07:36:29.063Z,79.09
2022-09-15T07:37:29.062Z,79.53
2022-09-15T07:38:29.075Z,78.46
2022-09-15T07:39:29.035Z,78.39
2022-09-15T07:40:29.104Z,80.62
2022-09-15T07:41:29.042Z,80.54
2022-09-15T07:42:32.147Z,78.89
2022-09-15T07:43:31.021Z,78.28
2022-09-15T07:44:29.036Z,76.56
2022-09-15T07:45:29.061Z,76.67
2022-09-15T07:46:29.006Z,75.22
2022-09-15T07:47:28.998Z,74.21
2022-09-15T07:48:28.988Z,75.12
2022-09-15T07:49:29.022Z,76.10
2022-09-15T07:50:28.966Z,74.25
2022-09-15T07:51:28.959Z,74.75
2022-09-15T07:52:29.029Z,74.38
2022-09-15T07:53:29.002Z,76.10
2022-09-15T07:54:28.947Z,75.23
2022-09-15T07:55:29.934Z,75.36
2022-09-15T07:56:28.951Z,77.28
2022-09-15T07:57:28.942Z,76.16
2022-09-15T07:58:28.935Z,73.91
2022-09-15T07:59:28.924Z,74.72
2022-09-15T08:00:28.950Z,73.14
2022-09-15T08:01:28.954Z,73.78
2022-09-15T08:02:28.915Z,74.52
2022-09-15T08:03:28.894Z,73.71
2022-09-15T08:04:28.878Z,73.51
2022-09-15T08:05:28.902Z,73.75
2022-09-15T08:06:28.906Z,76.67
2022-09-15T08:07:28.862Z,77.68
2022-09-15T08:08:28.858Z,77.08
2022-09-15T08:09:28.879Z,76.91
2022-09-15T08:10:28.856Z,78.19
2022-09-15T08:11:28.851Z,77.95
2022-09-15T08:12:28.906Z,78.72
2022-09-15T08:13:28.827Z,77.92
2022-09-15T08:14:28.807Z,78.32
2022-09-15T08:15:28.828Z,78.52
2022-09-15T08:16:28.830Z,78.52
2022-09-15T08:17:28.829Z,78.39
2022-09-15T08:18:28.796Z,79.04
2022-09-15T08:19:28.878Z,80.25
2022-09-15T08:20:28.764Z,80.62
2022-09-15T08:21:28.787Z,80.51
2022-09-15T08:22:28.789Z,80.72
2022-09-15T08:23:28.765Z,80.11
2022-09-15T08:24:28.776Z,80.96
2022-09-15T08:25:28.757Z,81.46
2022-09-15T08:26:28.744Z,80.41
2022-09-15T08:27:28.730Z,81.62
2022-09-15T08:28:28.742Z,81.52
2022-09-15T08:29:28.980Z,80.38
2022-09-15T08:30:28.737Z,80.04
2022-09-15T08:31:28.756Z,78.83
2022-09-15T08:32:28.760Z,78.63
2022-09-15T08:33:29.444Z,78.52
2022-09-15T08:34:28.681Z,77.28
2022-09-15T08:35:28.681Z,77.75
2022-09-15T08:36:28.674Z,77.68
2022-09-15T08:37:28.675Z,76.64
2022-09-15T08:38:28.670Z,74.58
2022-09-15T08:39:28.653Z,75.05
2022-09-15T08:40:28.703Z,74.72
2022-09-15T08:41:28.659Z,73.98
2022-09-15T08:42:28.662Z,73.91
2022-09-15T08:43:28.660Z,72.33
2022-09-15T08:44:28.644Z,71.63
2022-09-15T08:45:28.629Z,68.26
2022-09-15T08:46:28.672Z,68.08
2022-09-15T08:47:28.601Z,67.49
2022-09-15T08:48:28.655Z,67.25
2022-09-15T08:49:50.069Z,67.85
2022-09-15T08:50:30.584Z,69.42
2022-09-15T08:51:28.631Z,70.59
2022-09-15T08:52:28.584Z,71.83
2022-09-15T08:53:28.565Z,71.97
2022-09-15T08:54:28.563Z,72.07
2022-09-15T08:55:28.573Z,72.27
2022-09-15T08:56:28.582Z,73.21
2022-09-15T08:57:28.538Z,73.85
2022-09-15T08:58:28.566Z,72.84
2022-09-15T08:59:28.542Z,74.38
2022-09-15T09:00:28.524Z,73.48
2022-09-15T09:01:28.618Z,72.94
2022-09-15T09:02:28.549Z,74.73
2022-09-15T09:03:28.521Z,75.96
2022-09-15T09:04:28.477Z,76.23
2022-09-15T09:05:28.546Z,75.63
2022-09-15T09:06:28.488Z,75.53
2022-09-15T09:07:28.468Z,76.23
2022-09-15T09:08:28.471Z,75.13
2022-09-15T09:09:28.472Z,76.67
2022-09-15T09:10:28.553Z,76.77
2022-09-15T09:11:28.444Z,76.43
2022-09-15T09:12:28.432Z,76.57
2022-09-15T09:13:32.035Z,77.82
2022-09-15T09:14:30.513Z,78.22
2022-09-15T09:15:28.478Z,78.46
2022-09-15T09:16:28.433Z,79.03
2022-09-15T09:17:28.406Z,78.72
2022-09-15T09:18:28.392Z,77.82
2022-09-15T09:19:32.035Z,77.17
2022-09-15T09:20:29.392Z,76.97
2022-09-15T09:21:28.377Z,77.08
2022-09-15T09:23:39.422Z,76.94
2022-09-15T09:24:40.583Z,76.20
2022-09-15T09:25:40.565Z,75.93
2022-09-15T09:26:40.527Z,76.10
2022-09-15T09:27:40.515Z,76.30
2022-09-15T09:28:40.501Z,76.90
2022-09-15T09:29:40.565Z,75.59
2022-09-15T09:30:40.534Z,76.74
2022-09-15T09:31:40.509Z,75.93
2022-09-15T09:32:40.482Z,75.02
2022-09-15T09:33:45.094Z,75.19
2022-09-15T09:34:42.491Z,74.58
2022-09-15T09:35:40.529Z,75.19
2022-09-15T09:36:40.479Z,74.79
2022-09-15T09:37:40.458Z,74.35
2022-09-15T09:38:40.465Z,74.65
2022-09-15T09:39:40.437Z,74.29
2022-09-15T09:40:40.473Z,73.88
2022-09-15T09:41:40.429Z,74.02
2022-09-15T09:42:40.424Z,73.88
2022-09-15T09:43:40.438Z,74.18
2022-09-15T09:44:40.421Z,74.18
2022-09-15T09:45:40.457Z,72.54
2022-09-15T09:46:41.348Z,72.74
2022-09-15T09:47:40.413Z,71.80
2022-09-15T09:48:40.553Z,71.90
2022-09-15T09:49:40.396Z,71.70
2022-09-15T09:50:40.389Z,71.26
2022-09-15T09:51:40.457Z,70.66
2022-09-15T09:52:40.385Z,69.42
2022-09-15T09:53:40.365Z,69.09
2022-09-15T09:54:40.485Z,69.49
2022-09-15T09:55:40.373Z,68.95
2022-09-15T09:56:40.369Z,68.32
2022-09-15T09:57:40.898Z,67.88
2022-09-15T09:58:41.321Z,67.29
2022-09-15T09:59:40.348Z,66.85
2022-09-15T10:00:40.309Z,65.88
2022-09-15T10:01:40.314Z,66.25
2022-09-15T10:02:40.334Z,66.35
2022-09-15T10:03:40.298Z,65.31
2022-09-15T10:04:40.357Z,65.55
2022-09-15T10:05:40.261Z,66.15
2022-09-15T10:06:40.272Z,66.42
2022-09-15T10:07:40.278Z,64.65
2022-09-15T10:08:40.301Z,62.42
2022-09-15T10:09:40.265Z,63.22
2022-09-15T10:10:40.229Z,62.52
2022-09-15T10:11:40.385Z,62.52
2022-09-15T10:12:40.226Z,62.58
2022-09-15T10:13:40.253Z,64.62
2022-09-15T10:14:40.241Z,64.75
2022-09-15T10:15:40.253Z,65.58
2022-09-15T10:16:40.291Z,65.78
2022-09-15T10:17:41.182Z,66.31
2022-09-15T10:18:40.252Z,66.18
2022-09-15T10:19:40.169Z,66.38
2022-09-15T10:20:40.152Z,65.85
2022-09-15T10:21:40.169Z,66.15
2022-09-15T10:22:40.181Z,65.45
2022-09-15T10:23:40.136Z,64.39
2022-09-15T10:24:40.161Z,64.48
2022-09-15T10:25:57.906Z,64.01
2022-09-15T10:26:42.117Z,62.88
2022-09-15T10:27:40.180Z,61.75
2022-09-15T10:28:40.108Z,61.45
2022-09-15T10:29:40.120Z,61.68
2022-09-15T10:30:40.100Z,61.45
2022-09-15T10:31:40.195Z,60.95
2022-09-15T10:32:41.096Z,60.32
2022-09-15T10:33:40.181Z,58.92
2022-09-15T10:34:40.111Z,60.05
2022-09-15T10:35:40.060Z,60.88
2022-09-15T10:36:40.068Z,59.75
2022-09-15T10:37:40.054Z,58.43
2022-09-15T10:38:40.052Z,61.61
2022-09-15T10:39:40.051Z,59.81
2022-09-15T10:40:40.039Z,57.17
2022-09-15T10:41:40.027Z,56.85
2022-09-15T10:42:40.029Z,57.17
2022-09-15T10:43:40.056Z,57.20
2022-09-15T10:44:40.079Z,57.23
2022-09-15T10:45:40.221Z,57.33
2022-09-15T10:46:39.988Z,58.06
2022-09-15T10:47:40.020Z,58.16
2022-09-15T10:48:39.976Z,58.13
2022-09-15T10:49:39.974Z,58.43
2022-09-15T10:50:40.983Z,58.94
2022-09-15T10:51:39.956Z,60.21
2022-09-15T10:52:39.951Z,58.87
2022-09-15T10:53:39.962Z,55.85
2022-09-15T10:54:39.938Z,55.35
2022-09-15T10:55:52.184Z,54.52
2022-09-15T10:56:41.961Z,54.52
2022-09-15T10:57:40.648Z,54.12
2022-09-15T10:58:42.278Z,55.27
2022-09-15T10:59:40.918Z,55.30
2022-09-15T11:00:40.016Z,54.60
2022-09-15T11:01:39.937Z,53.89
2022-09-15T11:02:40.019Z,53.97
2022-09-15T11:03:39.957Z,54.35
2022-09-15T11:04:39.877Z,53.82
2022-09-15T11:05:40.008Z,53.27
2022-09-15T11:06:39.911Z,52.04
2022-09-15T11:07:39.869Z,51.57
2022-09-15T11:08:39.879Z,51.04
2022-09-15T11:09:39.856Z,48.58
2022-09-15T11:10:39.851Z,49.48
2022-09-15T11:11:39.888Z,51.04
2022-09-15T11:12:39.884Z,50.72
2022-09-15T11:13:39.848Z,48.71
2022-09-15T11:14:39.835Z,46.09
2022-09-15T11:15:39.811Z,46.77
2022-09-15T11:16:39.941Z,44.00
2022-09-15T11:17:39.920Z,44.20
2022-09-15T11:18:39.891Z,43.38
2022-09-15T11:19:39.813Z,43.88
2022-09-15T11:20:39.785Z,43.04
2022-09-15T11:21:39.825Z,41.89
2022-09-15T11:22:39.784Z,39.83
2022-09-15T11:23:39.755Z,38.53
2022-09-15T11:24:39.766Z,39.00
2022-09-15T11:25:39.748Z,38.82
2022-09-15T11:26:39.757Z,38.67
2022-09-15T11:27:39.864Z,40.33
2022-09-15T11:28:39.726Z,41.49
2022-09-15T11:29:39.787Z,43.14
2022-09-15T11:30:42.446Z,42.55
2022-09-15T11:31:40.230Z,44.20
2022-09-15T11:32:39.740Z,45.06
2022-09-15T11:33:40.255Z,47.29
2022-09-15T11:34:39.774Z,47.58
2022-09-15T11:35:39.691Z,49.57
2022-09-15T11:36:39.666Z,49.65
2022-09-15T11:37:39.773Z,51.37
2022-09-15T11:38:39.674Z,50.54
2022-09-15T11:39:39.657Z,47.21
2022-09-15T11:40:39.662Z,43.70
2022-09-15T11:41:39.677Z,42.23
2022-09-15T11:42:39.641Z,43.10
2022-09-15T11:43:39.645Z,44.96
2022-09-15T11:44:39.716Z,46.14
2022-09-15T11:45:39.625Z,50.59
2022-09-15T11:46:39.635Z,51.42
2022-09-15T11:47:39.614Z,52.44
2022-09-15T11:48:39.611Z,52.04
2022-09-15T11:49:39.719Z,52.72
2022-09-15T11:50:39.664Z,51.92
2022-09-15T11:51:39.616Z,52.22
2022-09-15T11:52:39.864Z,51.54
2022-09-15T11:53:39.655Z,51.57
2022-09-15T11:54:39.560Z,53.50
2022-09-15T11:55:39.610Z,53.30
2022-09-15T11:56:39.563Z,53.12
2022-09-15T11:57:39.583Z,52.52
2022-09-15T11:58:39.555Z,51.99
2022-09-15T11:59:39.548Z,52.29
2022-09-15T12:00:39.539Z,52.07
2022-09-15T12:01:39.606Z,49.64
2022-09-15T12:02:39.551Z,50.84
2022-09-15T12:03:39.522Z,51.12
2022-09-15T12:04:39.498Z,50.67
2022-09-15T12:05:39.490Z,52.29
2022-09-15T12:06:44.779Z,53.39
2022-09-15T12:07:41.504Z,53.32
2022-09-15T12:08:39.519Z,53.05
2022-09-15T12:09:39.464Z,52.14
2022-09-15T12:10:39.458Z,53.17
2022-09-15T12:11:39.468Z,53.14
2022-09-15T12:12:39.515Z,53.85
2022-09-15T12:13:39.470Z,53.45
2022-09-15T12:14:39.442Z,53.25
2022-09-15T12:15:39.472Z,53.32
2022-09-15T12:16:39.427Z,53.22
2022-09-15T12:17:39.438Z,53.34
2022-09-15T12:18:42.712Z,53.37
2022-09-15T12:19:41.437Z,53.57
2022-09-15T12:20:39.414Z,53.77
2022-09-15T12:21:39.394Z,53.85
2022-09-15T12:22:39.423Z,54.35
2022-09-15T12:23:39.400Z,54.95
2022-09-15T12:24:39.387Z,54.75
2022-09-15T12:25:39.375Z,54.85
2022-09-15T12:26:39.375Z,53.07
2022-09-15T12:27:39.368Z,53.47
2022-09-15T12:28:39.389Z,54.17
2022-09-15T12:29:41.931Z,53.95
2022-09-15T12:30:40.339Z,53.42
2022-09-15T12:31:39.478Z,53.32
2022-09-15T12:32:39.336Z,52.69
2022-09-15T12:33:39.358Z,52.80
2022-09-15T12:34:39.332Z,52.49
2022-09-15T12:35:39.328Z,53.19
2022-09-15T12:36:39.316Z,53.37
2022-09-15T12:37:39.307Z,52.69
2022-09-15T12:38:39.291Z,52.29
2022-09-15T12:39:39.295Z,52.22
2022-09-15T12:40:39.469Z,52.32
2022-09-15T12:41:39.280Z,52.52
2022-09-15T12:42:39.276Z,52.42
2022-09-15T12:43:39.295Z,52.69
2022-09-15T12:44:39.259Z,53.32
2022-09-15T12:45:39.264Z,54.32
2022-09-15T12:46:39.339Z,52.64
2022-09-15T12:47:39.253Z,53.27
2022-09-15T12:48:39.247Z,53.77
2022-09-15T12:49:39.264Z,53.75
2022-09-15T12:50:39.220Z,54.47
2022-09-15T12:51:39.260Z,53.45
2022-09-15T12:52:39.215Z,53.85
2022-09-15T12:53:40.841Z,55.38
2022-09-15T12:54:39.228Z,54.77